Time;durP1;ratioP1;P1;durP2;ratioP2;P2;SDS_P1;SDS_P2;PMS_P1;PMS_P2;Temp;Humidity;BMP_temperature;BMP_pressure;BME280_temperature;BME280_humidity;BME280_pressure;Samples;Min_cycle;Max_cycle;Signal;HPM_P1;HPM_P2
2022/05/20 00:01:58;;;;;;;;;1.00;1.00;;;;;23.47;87.65;101710.25;4997653;28;45392;-74
2022/05/20 00:04:23;;;;;;;;;1.00;1.00;;;;;23.45;86.57;101715.69;4996801;28;45219;-74
2022/05/20 00:06:48;;;;;;;;;1.00;1.00;;;;;23.40;85.92;101711.38;4996408;28;54395;-74
2022/05/20 00:09:14;;;;;;;;;0.33;0.33;;;;;23.37;86.18;101697.97;5000920;28;60554;-73
2022/05/20 00:11:39;;;;;;;;;3.33;1.00;;;;;23.32;85.67;101695.41;5006220;28;45293;-74
2022/05/20 00:14:05;;;;;;;;;2.33;1.00;;;;;23.29;85.23;101702.72;5007414;28;45641;-74
2022/05/20 00:16:33;;;;;;;;;1.00;1.00;;;;;23.25;84.82;101697.38;4999837;28;45541;-74
2022/05/20 00:18:59;;;;;;;;;1.67;1.00;;;;;23.23;84.61;101693.00;5014539;28;46659;-74
2022/05/20 00:21:24;;;;;;;;;2.00;0.33;;;;;23.21;83.47;101689.44;5004908;28;45474;-74
2022/05/20 00:23:49;;;;;;;;;3.00;0.33;;;;;23.18;83.20;101689.53;5001402;28;54949;-76
2022/05/20 00:26:15;;;;;;;;;0.67;0.67;;;;;23.14;82.69;101687.84;5010026;28;50196;-74
2022/05/20 00:28:40;;;;;;;;;0.33;0.33;;;;;23.09;82.32;101687.97;5008160;28;46415;-74
2022/05/20 00:31:09;;;;;;;;;1.00;1.00;;;;;23.08;82.13;101679.94;5004235;28;45313;-73
2022/05/20 00:33:35;;;;;;;;;1.33;0.00;;;;;23.06;81.30;101682.66;5011152;28;45376;-74
2022/05/20 00:36:01;;;;;;;;;1.67;0.00;;;;;23.04;81.01;101689.00;4997112;28;45571;-75
2022/05/20 00:38:27;;;;;;;;;0.00;0.00;;;;;23.04;80.55;101694.41;4996524;28;45631;-74
2022/05/20 00:40:54;;;;;;;;;2.67;0.33;;;;;23.00;79.98;101686.38;5001893;28;45317;-75
2022/05/20 00:43:35;;;;;;;;;2.00;1.00;;;;;22.98;80.11;101685.56;5007173;28;45497;-73
2022/05/20 00:46:07;;;;;;;;;0.33;0.33;;;;;22.97;79.71;101691.88;5006056;28;45564;-75
2022/05/20 00:48:33;;;;;;;;;2.00;0.00;;;;;22.97;79.82;101697.28;4978920;28;46559;-74
2022/05/20 00:51:18;;;;;;;;;1.00;0.00;;;;;22.96;79.21;101690.13;4999956;28;45512;-75
2022/05/20 00:53:48;;;;;;;;;2.33;1.00;;;;;22.95;79.30;101685.63;4984495;28;45302;-76
2022/05/20 00:56:17;;;;;;;;;2.00;1.00;;;;;22.93;79.34;101679.41;5014292;28;45314;-74
2022/05/20 00:58:44;;;;;;;;;0.00;0.00;;;;;22.93;79.93;101683.91;5005615;28;47347;-74
2022/05/20 01:01:09;;;;;;;;;1.67;0.00;;;;;22.91;79.53;101675.00;5005293;28;45591;-76
2022/05/20 01:03:36;;;;;;;;;1.00;1.00;;;;;22.89;80.07;101682.22;5005445;28;45213;-74
2022/05/20 01:06:02;;;;;;;;;0.00;0.00;;;;;22.86;79.59;101680.47;4994600;28;45326;-74
2022/05/20 01:08:30;;;;;;;;;1.00;1.00;;;;;22.81;79.47;101671.63;4995730;28;45723;-74
2022/05/20 01:10:56;;;;;;;;;1.00;0.00;;;;;22.79;80.01;101661.81;4978315;28;45288;-73
2022/05/20 01:13:24;;;;;;;;;0.00;0.00;;;;;22.74;78.89;101660.16;5001293;28;45567;-74
2022/05/20 01:15:50;;;;;;;;;0.00;0.00;;;;;22.71;79.11;101654.84;5004867;28;45492;-74
2022/05/20 01:18:16;;;;;;;;;1.33;0.00;;;;;22.67;79.02;101652.25;5007968;28;57054;-73
2022/05/20 01:20:48;;;;;;;;;2.00;0.67;;;;;22.62;79.21;101654.19;5009819;28;45405;-73
2022/05/20 01:23:22;;;;;;;;;0.33;0.33;;;;;22.59;78.62;101648.91;4993842;28;45322;-73
2022/05/20 01:25:53;;;;;;;;;3.67;0.67;;;;;22.55;78.75;101633.75;5003058;28;47131;-74
2022/05/20 01:28:21;;;;;;;;;0.00;0.00;;;;;22.51;78.94;101634.72;5004895;28;45805;-73
2022/05/20 01:30:53;;;;;;;;;1.33;1.00;;;;;22.48;79.02;101622.25;5014553;28;45448;-73
2022/05/20 01:33:27;;;;;;;;;1.00;1.00;;;;;22.43;79.17;101624.19;4985116;28;45575;-74
2022/05/20 01:35:53;;;;;;;;;0.33;0.33;;;;;22.40;79.28;101621.56;5004230;28;45424;-74
2022/05/20 01:38:19;;;;;;;;;1.00;1.00;;;;;22.35;79.34;101616.28;5012204;28;45310;-74
2022/05/20 01:40:52;;;;;;;;;0.00;0.00;;;;;22.30;79.12;101607.44;5009252;28;45404;-74
2022/05/20 01:43:39;;;;;;;;;0.67;0.67;;;;;22.26;79.83;101613.81;4991020;28;45433;-74
2022/05/20 01:46:10;;;;;;;;;1.00;1.00;;;;;22.22;79.02;101612.16;5016087;28;45454;-74
2022/05/20 01:48:43;;;;;;;;;0.33;0.00;;;;;22.18;79.39;101613.13;4999394;28;46585;-74
2022/05/20 01:51:12;;;;;;;;;1.00;0.00;;;;;22.15;79.48;101610.50;5007613;28;45456;-73
2022/05/20 01:53:42;;;;;;;;;4.00;1.00;;;;;22.13;79.45;101607.00;5014124;28;45361;-73
2022/05/20 01:56:25;;;;;;;;;0.00;0.00;;;;;22.08;80.74;101606.19;4993571;28;45637;-74
2022/05/20 01:58:57;;;;;;;;;0.00;0.00;;;;;22.05;79.65;101606.25;4988621;28;47590;-73
2022/05/20 02:01:32;;;;;;;;;1.00;1.00;;;;;22.01;79.81;101597.38;5014065;28;45484;-74
2022/05/20 02:04:02;;;;;;;;;0.00;0.00;;;;;22.00;79.44;101592.00;4988006;28;45402;-74
2022/05/20 02:06:35;;;;;;;;;0.00;0.00;;;;;21.97;79.63;101593.88;5013867;28;45540;-74
2022/05/20 02:09:05;;;;;;;;;1.00;1.00;;;;;21.96;80.16;101584.03;4987977;28;46552;-74
2022/05/20 02:11:38;;;;;;;;;1.00;1.00;;;;;21.96;80.52;101584.03;4980999;28;45598;-73
2022/05/20 02:14:10;;;;;;;;;2.00;1.00;;;;;21.97;80.23;101579.53;4981183;28;45539;-74
2022/05/20 02:16:43;;;;;;;;;0.00;0.00;;;;;21.99;80.34;101580.38;4991017;28;45406;-74
2022/05/20 02:19:14;;;;;;;;;0.67;0.00;;;;;22.00;81.24;101565.13;5008724;28;46959;-74
2022/05/20 02:21:44;;;;;;;;;1.33;1.00;;;;;22.00;80.85;101573.19;5006895;28;45293;-73
2022/05/20 02:24:15;;;;;;;;;0.67;0.67;;;;;22.02;81.13;101571.38;5001328;28;45425;-74
2022/05/20 02:26:48;;;;;;;;;2.00;0.00;;;;;22.02;81.21;101568.69;5006727;28;45497;-74
2022/05/20 02:29:16;;;;;;;;;0.00;0.00;;;;;22.04;81.63;101574.88;5005787;28;46337;-74
2022/05/20 02:32:00;;;;;;;;;1.00;1.00;;;;;22.05;81.33;101573.97;5004267;28;46698;-74
2022/05/20 02:34:29;;;;;;;;;0.00;0.00;;;;;22.05;82.91;101571.28;5012403;28;45381;-73
2022/05/20 02:36:54;;;;;;;;;2.00;1.00;;;;;22.04;82.53;101561.44;4998548;28;45521;-73
2022/05/20 02:39:21;;;;;;;;;1.67;0.00;;;;;22.02;82.47;101563.31;4998508;28;45809;-74
2022/05/20 02:41:48;;;;;;;;;1.00;0.33;;;;;22.03;82.37;101562.38;4998141;28;45212;-73
2022/05/20 02:44:14;;;;;;;;;1.33;1.00;;;;;22.01;82.68;101558.84;4999596;28;45512;-73
2022/05/20 02:46:41;;;;;;;;;1.00;0.00;;;;;21.98;83.36;101565.16;5005271;28;45614;-76
2022/05/20 02:49:07;;;;;;;;;1.33;1.00;;;;;21.95;83.92;101565.25;5001737;28;47333;-75
2022/05/20 02:51:32;;;;;;;;;0.33;0.33;;;;;21.92;83.58;101555.44;5001976;28;45491;-73
2022/05/20 02:53:58;;;;;;;;;1.00;1.00;;;;;21.91;84.61;101561.75;5006424;28;45334;-74
2022/05/20 02:56:24;;;;;;;;;1.00;1.00;;;;;21.86;84.83;101558.28;5002335;28;45520;-74
2022/05/20 03:04:18;;;;;;;;;1.00;0.33;;;;;21.76;86.00;101553.19;4999083;28;45716;-73
2022/05/20 03:06:46;;;;;;;;;1.33;0.00;;;;;21.74;86.70;101561.28;4987883;28;45619;-74
2022/05/20 03:09:13;;;;;;;;;0.33;0.33;;;;;21.72;87.73;101555.03;4998061;28;46454;-74
2022/05/20 03:11:40;;;;;;;;;1.00;1.00;;;;;21.70;89.08;101549.72;4998326;28;45257;-76
2022/05/20 03:14:08;;;;;;;;;1.00;1.00;;;;;21.67;87.75;101541.69;4984137;28;45486;-74
2022/05/20 03:16:34;;;;;;;;;1.67;1.00;;;;;21.66;88.23;101548.00;4999278;28;45329;-74
2022/05/20 03:18:59;;;;;;;;;3.00;1.00;;;;;21.67;88.79;101554.25;4997774;28;46566;-73
2022/05/20 03:21:24;;;;;;;;;1.00;1.00;;;;;21.63;89.53;101558.84;5003726;28;60860;-73
2022/05/20 03:23:51;;;;;;;;;2.00;1.00;;;;;21.62;89.96;101551.69;4977295;28;46223;-74
2022/05/20 03:26:17;;;;;;;;;1.00;1.00;;;;;21.59;93.83;101557.16;5000560;28;45221;-74
2022/05/20 03:28:43;;;;;;;;;2.67;1.67;;;;;21.58;92.53;101549.13;5011166;28;46214;-74
2022/05/20 03:31:10;;;;;;;;;7.00;3.67;;;;;21.56;93.22;101559.00;4989748;28;45588;-73
2022/05/20 03:33:36;;;;;;;;;3.67;2.00;;;;;21.56;92.78;101565.25;5005979;28;45466;-73
2022/05/20 03:36:02;;;;;;;;;7.00;5.00;;;;;21.55;95.43;101551.88;4984428;28;45750;-76
2022/05/20 03:38:28;;;;;;;;;6.67;4.33;;;;;21.56;93.79;101543.75;5000586;28;46722;-74
2022/05/20 03:40:53;;;;;;;;;3.00;3.00;;;;;21.57;94.14;101547.34;4992178;28;63167;-74
2022/05/20 03:43:18;;;;;;;;;3.67;3.67;;;;;21.55;97.37;101538.44;4998986;28;52368;-76
2022/05/20 03:45:44;;;;;;;;;5.00;3.00;;;;;21.52;96.02;101534.03;5000890;28;50671;-74
2022/05/20 03:48:10;;;;;;;;;2.00;2.00;;;;;21.48;97.01;101526.94;5002540;28;61352;-75
2022/05/20 03:50:35;;;;;;;;;4.33;3.00;;;;;21.46;96.54;101528.75;5008778;28;45298;-74
2022/05/20 03:53:02;;;;;;;;;1.67;1.67;;;;;21.42;98.15;101522.59;5000872;28;45497;-74
2022/05/20 03:55:27;;;;;;;;;3.00;3.00;;;;;21.39;98.02;101516.41;5011512;28;45357;-74
2022/05/20 03:57:53;;;;;;;;;1.33;1.33;;;;;21.37;99.39;101511.06;4994950;28;46105;-73
2022/05/20 04:00:19;;;;;;;;;2.00;2.00;;;;;21.31;100.00;101515.72;4996538;28;58662;-74
2022/05/20 04:02:44;;;;;;;;;4.00;2.00;;;;;21.29;100.00;101513.00;5007268;28;45335;-73
2022/05/20 04:05:10;;;;;;;;;3.67;2.00;;;;;21.25;100.00;101513.09;5007624;28;45196;-75
2022/05/20 04:07:36;;;;;;;;;2.00;2.00;;;;;21.22;100.00;101514.06;4996514;28;46245;-74
2022/05/20 04:10:02;;;;;;;;;1.00;1.00;;;;;21.18;100.00;101510.56;5007184;28;45374;-75
2022/05/20 04:12:32;;;;;;;;;2.67;1.00;;;;;21.15;100.00;101510.66;4997339;28;45349;-73
2022/05/20 04:14:58;;;;;;;;;2.00;2.00;;;;;21.15;100.00;101517.81;4987914;28;45378;-76
2022/05/20 04:17:24;;;;;;;;;4.00;1.33;;;;;21.13;100.00;101516.94;4996839;28;46450;-74
2022/05/20 04:19:49;;;;;;;;;1.33;1.33;;;;;21.10;100.00;101514.34;5004048;28;45286;-73
2022/05/20 04:22:17;;;;;;;;;2.00;2.00;;;;;21.09;100.00;101512.56;4998220;28;45876;-76
2022/05/20 04:24:42;;;;;;;;;5.67;1.67;;;;;21.06;100.00;101515.31;4981730;28;45618;-75
2022/05/20 04:27:08;;;;;;;;;3.67;2.67;;;;;21.04;100.00;101509.09;5005491;28;53572;-75
2022/05/20 04:29:34;;;;;;;;;7.00;2.00;;;;;21.03;100.00;101516.25;4994557;28;45553;-75
2022/05/20 04:32:00;;;;;;;;;5.00;4.00;;;;;21.01;100.00;101517.22;4996782;28;45401;-75
2022/05/20 04:34:25;;;;;;;;;4.00;2.00;;;;;21.01;100.00;101519.91;4996606;28;45441;-75
2022/05/20 04:36:51;;;;;;;;;2.67;2.00;;;;;21.01;100.00;101519.91;5002463;28;46572;-77
2022/05/20 04:39:17;;;;;;;;;3.00;1.00;;;;;21.03;100.00;101524.31;4982704;28;45636;-76
2022/05/20 04:47:21;;;;;;;;;4.00;3.00;;;;;21.11;100.00;101524.16;4993006;28;45490;-76
2022/05/20 04:49:47;;;;;;;;;3.33;2.00;;;;;21.18;100.00;101531.16;5009367;28;45540;-77
2022/05/20 04:52:13;;;;;;;;;4.33;2.00;;;;;21.26;100.00;101539.06;5009486;28;45508;-78
2022/05/20 04:54:50;;;;;;;;;2.00;1.33;;;;;21.32;100.00;101537.16;4996737;28;45713;-78
2022/05/20 04:57:29;;;;;;;;;4.00;2.67;;;;;21.39;100.00;101541.47;4996377;28;46696;-76
2022/05/20 05:00:14;;;;;;;;;2.67;2.33;;;;;21.46;100.00;101547.56;5001452;28;47087;-76
2022/05/20 05:02:41;;;;;;;;;2.00;2.00;;;;;21.52;100.00;101549.25;4979259;28;45301;-77
2022/05/20 05:05:08;;;;;;;;;3.67;3.00;;;;;21.54;100.00;101545.63;4998496;28;45470;-75
2022/05/20 05:07:42;;;;;;;;;5.33;1.00;;;;;21.57;100.00;101536.59;5000814;28;47373;-74
2022/05/20 05:10:09;;;;;;;;;4.33;3.00;;;;;21.58;100.00;101541.06;5004048;28;45513;-76
2022/05/20 05:12:34;;;;;;;;;4.00;3.00;;;;;21.58;100.00;101539.25;5009494;28;45578;-75
2022/05/20 05:14:59;;;;;;;;;3.33;2.00;;;;;21.57;100.00;101540.19;5003526;28;45580;-75
2022/05/20 05:20:16;;;;;;;;;3.67;2.00;;;;;21.60;100.00;101553.53;4995441;28;45475;-74
2022/05/20 05:22:42;;;;;;;;;2.00;2.00;;;;;21.62;100.00;101548.09;5006739;28;45275;-77
2022/05/20 05:25:11;;;;;;;;;4.00;3.00;;;;;21.61;100.00;101532.91;4995762;28;45480;-76
2022/05/20 05:27:37;;;;;;;;;5.00;3.00;;;;;21.62;100.00;101534.66;4995856;28;46819;-75
2022/05/20 05:30:03;;;;;;;;;4.00;4.00;;;;;21.61;100.00;101523.03;4993516;28;45287;-72
2022/05/20 05:32:29;;;;;;;;;3.33;2.00;;;;;21.60;100.00;101515.91;4990845;28;45512;-72
2022/05/20 05:34:54;;;;;;;;;5.00;3.00;;;;;21.60;100.00;101515.91;4982225;28;45582;-73
2022/05/20 05:37:20;;;;;;;;;3.33;3.00;;;;;21.59;100.00;101506.09;4992097;28;45489;-74
2022/05/20 05:39:46;;;;;;;;;2.00;2.00;;;;;21.59;100.00;101510.56;4985219;28;45459;-73
2022/05/20 05:42:11;;;;;;;;;3.67;2.33;;;;;21.58;100.00;101511.50;4991721;28;45528;-72
2022/05/20 05:44:37;;;;;;;;;3.33;2.67;;;;;21.58;100.00;101522.25;4987300;28;45606;-72
2022/05/20 05:47:03;;;;;;;;;5.00;3.33;;;;;21.59;100.00;101524.00;4996644;28;45710;-74
2022/05/20 05:49:28;;;;;;;;;3.67;3.33;;;;;21.58;100.00;101498.06;4993563;28;45393;-72
2022/05/20 05:51:54;;;;;;;;;3.67;2.00;;;;;21.56;100.00;101492.69;4995311;28;57378;-72
2022/05/20 05:54:19;;;;;;;;;4.00;3.00;;;;;21.53;100.00;101490.09;4995155;28;45460;-73
2022/05/20 05:56:45;;;;;;;;;5.00;3.00;;;;;21.51;100.00;101481.19;4998413;28;46497;-73
2022/05/20 05:59:10;;;;;;;;;6.67;3.67;;;;;21.48;100.00;101473.22;4994966;28;51358;-72
2022/05/20 06:01:36;;;;;;;;;2.00;1.00;;;;;21.44;100.00;101487.63;4993210;28;45556;-73
2022/05/20 06:04:02;;;;;;;;;9.00;3.33;;;;;21.42;100.00;101498.41;4995453;28;45701;-72
2022/05/20 06:06:28;;;;;;;;;5.67;3.00;;;;;21.36;100.00;101501.25;4990493;28;47434;-72
2022/05/20 06:08:53;;;;;;;;;8.00;4.67;;;;;21.31;100.00;101524.66;4994428;28;45411;-74
2022/05/20 06:11:19;;;;;;;;;6.33;5.00;;;;;21.21;100.00;101531.09;4995667;28;56478;-74
2022/05/20 06:13:45;;;;;;;;;3.67;3.67;;;;;21.12;100.00;101542.91;4992899;28;45453;-73
2022/05/20 06:16:16;;;;;;;;;6.33;4.00;;;;;21.04;100.00;101533.25;4996010;28;45684;-73
2022/05/20 06:18:42;;;;;;;;;5.67;5.67;;;;;21.00;100.00;101527.09;4993931;28;45510;-75
2022/05/20 06:21:07;;;;;;;;;8.00;5.67;;;;;20.94;100.00;101511.09;4998597;28;45654;-73
2022/05/20 06:23:32;;;;;;;;;5.33;4.00;;;;;20.89;100.00;101481.66;4995615;28;56749;-74
2022/05/20 06:25:58;;;;;;;;;10.33;5.00;;;;;20.84;100.00;101471.94;4999543;28;64524;-75
2022/05/20 06:28:24;;;;;;;;;6.00;5.33;;;;;20.81;100.00;101447.84;5000599;28;45538;-74
2022/05/20 06:30:49;;;;;;;;;7.00;5.00;;;;;20.77;100.00;101411.25;4999760;28;45524;-74
2022/05/20 06:33:14;;;;;;;;;12.00;6.00;;;;;20.75;100.00;101403.22;4995955;28;56320;-75
2022/05/20 06:41:08;;;;;;;;;9.00;6.00;;;;;20.65;100.00;101476.78;4997352;28;45407;-76
2022/05/20 06:43:34;;;;;;;;;6.67;5.00;;;;;20.63;100.00;101481.31;4996003;28;45432;-74
2022/05/20 06:46:01;;;;;;;;;7.33;6.00;;;;;20.63;100.00;101462.53;4996753;28;46471;-75
2022/05/20 06:48:37;;;;;;;;;12.33;7.67;;;;;20.65;100.00;101472.31;4998411;28;45496;-75
2022/05/20 06:51:07;;;;;;;;;10.33;6.00;;;;;20.67;100.00;101456.19;5001144;28;45471;-75
2022/05/20 06:53:33;;;;;;;;;8.33;7.67;;;;;20.67;100.00;101415.94;5000307;28;45671;-74
2022/05/20 06:55:58;;;;;;;;;9.33;8.67;;;;;20.67;100.00;101383.75;4997548;28;47111;-75
2022/05/20 06:58:24;;;;;;;;;16.33;11.00;;;;;20.67;100.00;101255.81;5002808;28;45425;-73
2022/05/20 07:00:49;;;;;;;;;12.00;7.67;;;;;20.66;100.00;101149.38;5002536;28;59738;-75
2022/05/20 07:03:19;;;;;;;;;8.00;5.67;;;;;20.60;100.00;101235.41;4997574;28;48592;-75
2022/05/20 07:05:44;;;;;;;;;14.67;8.67;;;;;20.58;100.00;101263.19;4992613;28;46630;-76
2022/05/20 07:08:10;;;;;;;;;10.00;10.00;;;;;20.56;100.00;101244.47;4996051;28;45403;-75
2022/05/20 07:10:35;;;;;;;;;11.67;9.00;;;;;20.56;100.00;101235.50;4999798;28;46639;-76
2022/05/20 07:13:01;;;;;;;;;12.33;8.00;;;;;20.56;100.00;101235.50;4999458;28;52659;-75
2022/05/20 07:15:26;;;;;;;;;11.67;7.67;;;;;20.59;100.00;101238.13;4995959;28;45576;-76
2022/05/20 07:17:52;;;;;;;;;9.67;6.67;;;;;20.61;100.00;101257.75;5000143;28;52426;-76
2022/05/20 07:20:17;;;;;;;;;7.00;6.00;;;;;20.64;100.00;101249.63;4998945;28;45356;-74
2022/05/20 07:22:43;;;;;;;;;7.67;7.67;;;;;20.67;100.00;101255.81;4995899;28;45504;-74
2022/05/20 07:25:08;;;;;;;;;16.33;8.67;;;;;20.70;100.00;101273.63;4998639;28;45539;-75
2022/05/20 07:27:34;;;;;;;;;11.00;9.67;;;;;20.73;100.00;101278.94;4995035;28;45468;-75
2022/05/20 07:29:59;;;;;;;;;10.67;9.67;;;;;20.74;100.00;101296.81;4996586;28;45539;-73
2022/05/20 07:32:25;;;;;;;;;7.67;7.67;;;;;20.79;100.00;101313.69;4996620;28;45523;-74
2022/05/20 07:34:50;;;;;;;;;10.67;9.33;;;;;20.86;100.00;101322.47;4993510;28;47448;-74
2022/05/20 07:37:16;;;;;;;;;10.00;10.00;;;;;20.96;100.00;101331.19;4996224;28;45853;-74
2022/05/20 07:39:41;;;;;;;;;9.33;8.00;;;;;21.06;100.00;101335.41;4975558;28;45481;-73
2022/05/20 07:42:07;;;;;;;;;14.00;12.33;;;;;21.17;100.00;101336.91;4997451;28;56554;-74
2022/05/20 07:44:33;;;;;;;;;11.67;9.00;;;;;21.30;100.00;101360.81;4995171;28;46219;-74
2022/05/20 07:46:59;;;;;;;;;16.33;8.00;;;;;21.41;100.00;101380.22;4999591;28;45488;-74
2022/05/20 07:49:24;;;;;;;;;10.00;9.67;;;;;21.47;100.00;101398.03;4978281;28;45906;-74
2022/05/20 07:51:51;;;;;;;;;9.00;9.00;;;;;21.53;100.00;101432.78;4995115;28;51002;-74
2022/05/20 07:54:23;;;;;;;;;12.33;9.00;;;;;21.56;100.00;101433.56;4997435;28;65312;-74
2022/05/20 07:56:57;;;;;;;;;10.67;9.00;;;;;21.57;100.00;101461.34;4981076;28;45520;-73
2022/05/20 07:59:42;;;;;;;;;10.33;9.67;;;;;21.58;100.00;101415.63;4979436;28;45462;-73
2022/05/20 08:02:08;;;;;;;;;15.67;11.67;;;;;21.58;100.00;101393.25;5008514;28;45374;-74
2022/05/20 08:04:56;;;;;;;;;15.67;14.00;;;;;21.58;100.00;101379.81;4993917;28;65761;-74
2022/05/20 08:07:34;;;;;;;;;16.00;13.33;;;;;21.56;100.00;101395.97;4995176;28;45773;-74
2022/05/20 08:10:04;;;;;;;;;15.67;13.33;;;;;21.58;100.00;101337.69;4982838;28;45519;-73
2022/05/20 08:12:30;;;;;;;;;14.33;9.33;;;;;21.64;100.00;101350.09;4997627;28;45453;-73
2022/05/20 08:14:55;;;;;;;;;16.67;14.33;;;;;21.66;100.00;101340.16;4999423;28;62483;-73
2022/05/20 08:17:24;;;;;;;;;17.00;15.33;;;;;21.68;100.00;101349.09;5007808;28;45796;-73
2022/05/20 08:19:53;;;;;;;;;15.33;15.33;;;;;21.68;100.00;101354.47;4999243;28;45369;-73
2022/05/20 08:22:22;;;;;;;;;16.00;14.67;;;;;21.67;100.00;101352.69;4999455;28;45654;-75
2022/05/20 08:24:52;;;;;;;;;17.33;13.67;;;;;21.67;100.00;101355.38;4989435;28;47452;-74
2022/05/20 08:27:19;;;;;;;;;19.33;14.00;;;;;21.67;100.00;101325.78;5001031;28;45520;-74
2022/05/20 08:29:45;;;;;;;;;15.67;11.00;;;;;21.68;100.00;101319.53;4997478;28;45537;-74
2022/05/20 08:32:10;;;;;;;;;15.00;12.67;;;;;21.67;100.00;101344.63;4992353;28;52754;-74
2022/05/20 08:34:36;;;;;;;;;16.00;12.33;;;;;21.67;100.00;101345.50;4997623;28;46317;-74
2022/05/20 08:37:01;;;;;;;;;14.33;10.67;;;;;21.67;100.00;101358.94;4999413;28;45572;-74
2022/05/20 08:39:27;;;;;;;;;16.00;12.67;;;;;21.66;100.00;101428.88;4998556;28;45428;-74
2022/05/20 08:41:53;;;;;;;;;15.00;14.00;;;;;21.65;100.00;101495.19;4994721;28;45637;-74
2022/05/20 08:44:21;;;;;;;;;15.33;10.33;;;;;21.60;100.00;101515.03;4999706;28;47395;-74
2022/05/20 08:46:47;;;;;;;;;17.67;11.33;;;;;21.57;100.00;101550.03;5003882;28;45461;-74
2022/05/20 08:49:19;;;;;;;;;26.67;24.67;;;;;21.43;100.00;101459.00;4997652;28;45530;-74
2022/05/20 08:51:51;;;;;;;;;20.00;17.33;;;;;21.31;100.00;101487.03;4991666;28;45315;-74
2022/05/20 08:54:17;;;;;;;;;20.33;19.33;;;;;21.19;100.00;101450.53;4983112;28;46557;-74
2022/05/20 08:56:43;;;;;;;;;19.67;17.33;;;;;21.09;100.00;101376.50;4993962;28;45492;-74
2022/05/20 08:59:12;;;;;;;;;23.67;20.33;;;;;21.03;100.00;101391.84;4997302;28;45526;-74
2022/05/20 09:01:43;;;;;;;;;26.67;25.00;;;;;20.98;100.00;101397.34;5118576;23;46333;-75
2022/05/20 09:04:11;;;;;;;;;27.00;19.33;;;;;20.96;100.00;101388.44;5042865;28;46529;-74
2022/05/20 09:06:55;;;;;;;;;23.00;19.00;;;;;20.97;100.00;101379.47;5035148;28;45491;-74
2022/05/20 09:09:20;;;;;;;;;21.67;16.33;;;;;20.97;100.00;101400.06;5027281;28;45600;-74
2022/05/20 09:11:53;;;;;;;;;24.67;20.00;;;;;20.96;100.00;101391.13;5043248;28;45574;-74
2022/05/20 09:17:23;;;;;;;;;26.67;20.67;;;;;20.90;100.00;101397.53;5049999;28;45308;-74
2022/05/20 09:20:06;;;;;;;;;22.00;21.33;;;;;20.90;100.00;101402.00;5034963;28;45567;-74
2022/05/20 09:22:38;;;;;;;;;26.00;22.33;;;;;20.91;100.00;101390.34;5057698;28;45510;-74
2022/05/20 09:25:28;;;;;;;;;27.33;20.00;;;;;20.96;100.00;101366.09;5037668;28;46157;-73
2022/05/20 09:28:14;;;;;;;;;29.33;22.00;;;;;21.01;100.00;101348.06;5049106;28;45422;-74
2022/05/20 09:30:42;;;;;;;;;25.67;24.00;;;;;21.08;100.00;101355.03;5040036;28;45451;-74
2022/05/20 09:33:37;;;;;;;;;26.33;23.33;;;;;21.11;100.00;101417.63;5029809;28;45385;-73
2022/05/20 09:36:03;;;;;;;;;23.33;17.33;;;;;21.09;100.00;101509.88;5015294;28;47513;-75
2022/05/20 09:38:33;;;;;;;;;23.33;17.33;;;;;20.98;100.00;101566.47;5045329;28;45546;-75
2022/05/20 09:40:58;;;;;;;;;24.33;18.33;;;;;20.89;100.00;101483.47;5049125;28;45481;-75
2022/05/20 09:43:29;;;;;;;;;27.67;24.00;;;;;20.92;100.00;101323.19;5050099;28;45507;-75
2022/05/20 09:45:57;;;;;;;;;21.33;17.33;;;;;21.05;100.00;101356.00;5046890;28;47503;-77
2022/05/20 09:48:36;;;;;;;;;24.67;19.00;;;;;21.29;100.00;101356.31;5057064;28;45459;-74
2022/05/20 09:51:12;;;;;;;;;24.67;20.33;;;;;21.54;100.00;101281.38;5041085;28;45299;-74
2022/05/20 09:53:40;;;;;;;;;24.33;20.67;;;;;21.80;100.00;101261.84;5052247;28;45547;-74
2022/05/20 09:56:29;;;;;;;;;26.33;17.67;;;;;22.04;100.00;101242.28;5049379;28;46923;-74
2022/05/20 09:59:12;;;;;;;;;21.67;18.33;;;;;22.35;100.00;101234.19;5051520;28;46518;-75
2022/05/20 10:01:38;;;;;;;;;24.67;20.67;;;;;22.62;100.00;101223.47;5029620;28;45471;-74
2022/05/20 10:04:08;;;;;;;;;27.00;21.67;;;;;22.87;100.00;101228.94;5049899;28;45576;-75
2022/05/20 10:06:40;;;;;;;;;22.00;19.33;;;;;23.10;100.00;101234.44;5024102;28;47742;-74
2022/05/20 10:09:16;;;;;;;;;20.33;20.00;;;;;23.32;100.00;101225.63;5031217;28;45625;-74
2022/05/20 10:11:46;;;;;;;;;21.33;19.00;;;;;23.52;100.00;101232.03;5055330;28;45540;-75
2022/05/20 10:14:16;;;;;;;;;22.33;22.00;;;;;23.70;100.00;101248.50;5047169;28;45473;-75
2022/05/20 10:16:59;;;;;;;;;25.00;22.67;;;;;23.71;100.00;101280.84;5038253;28;47711;-75
2022/05/20 10:19:27;;;;;;;;;20.67;18.33;;;;;23.62;100.00;101320.69;5029079;28;45696;-75
2022/05/20 10:22:17;;;;;;;;;19.67;18.67;;;;;23.48;100.00;101359.78;5055118;28;45506;-75
2022/05/20 10:25:04;;;;;;;;;22.00;19.67;;;;;23.40;100.00;101353.78;5054952;28;45398;-74
2022/05/20 10:27:54;;;;;;;;;28.00;24.67;;;;;23.41;100.00;101338.50;5044841;28;47449;-74
2022/05/20 10:33:07;;;;;;;;;24.67;19.33;;;;;23.50;100.00;101308.53;5034722;28;45472;-74
2022/05/20 10:36:04;;;;;;;;;30.00;25.33;;;;;23.64;100.00;101281.97;5050309;28;45878;-74
2022/05/20 10:38:43;;;;;;;;;29.33;21.67;;;;;23.74;100.00;101294.19;5033422;28;47347;-74
2022/05/20 10:41:32;;;;;;;;;29.33;26.33;;;;;23.87;100.00;101288.38;5048428;28;45547;-75
2022/05/20 10:50:32;;;;;;;;;27.67;24.33;;;;;24.24;100.00;101261.75;5012497;28;45494;-74
2022/05/20 10:53:10;;;;;;;;;25.33;23.33;;;;;24.20;100.00;101260.09;5043601;28;45342;-74
2022/05/20 10:55:41;;;;;;;;;24.67;21.33;;;;;24.12;100.00;101259.50;5053184;28;45593;-74
2022/05/20 10:58:12;;;;;;;;;34.00;24.33;;;;;24.16;100.00;101269.25;5054883;28;45356;-73
2022/05/20 11:00:52;;;;;;;;;26.33;24.00;;;;;24.37;100.00;101267.56;5056098;28;46505;-74
2022/05/20 11:03:43;;;;;;;;;27.00;25.00;;;;;24.63;100.00;101277.34;5030898;28;45585;-74
2022/05/20 11:06:28;;;;;;;;;27.00;25.33;;;;;24.88;100.00;101284.44;5034726;28;45578;-74
2022/05/20 11:09:04;;;;;;;;;21.67;20.67;;;;;24.94;100.00;101303.09;5037470;28;45569;-74
2022/05/20 11:11:48;;;;;;;;;26.33;20.33;;;;;24.92;100.00;101311.25;5032814;28;45766;-74
2022/05/20 11:14:50;;;;;;;;;22.00;20.00;;;;;24.91;100.00;101331.09;5030187;28;45299;-74
2022/05/20 11:17:39;;;;;;;;;19.67;19.67;;;;;24.79;100.00;101348.69;5027794;28;45530;-74
2022/05/20 11:20:16;;;;;;;;;22.67;21.67;;;;;24.76;100.00;101339.81;5032991;28;45422;-74
2022/05/20 11:22:42;;;;;;;;;19.00;19.00;;;;;24.73;100.00;101337.25;5014125;28;46631;-74
2022/05/20 11:25:19;;;;;;;;;21.00;21.00;;;;;24.73;100.00;101346.25;5033615;28;45329;-74
2022/05/20 11:28:06;;;;;;;;;15.33;13.00;;;;;24.78;100.00;101341.53;5029303;28;45320;-74
2022/05/20 11:30:44;;;;;;;;;24.00;19.00;;;;;24.83;100.00;101328.72;5036823;28;45357;-74
2022/05/20 11:37:08;;;;;;;;;23.67;20.67;;;;;25.08;100.00;101328.63;5031184;28;45498;-74
2022/05/20 11:40:11;;;;;;;;;21.67;17.33;;;;;25.27;100.00;101327.88;5035497;28;45522;-74
2022/05/20 11:42:57;;;;;;;;;19.00;18.00;;;;;25.45;100.00;101334.31;5034158;28;45600;-74
2022/05/20 11:45:45;;;;;;;;;17.67;16.00;;;;;25.64;100.00;101339.81;5035306;28;46590;-75
2022/05/20 11:48:16;;;;;;;;;17.00;15.00;;;;;25.70;100.00;101337.72;5015277;28;45585;-74
2022/05/20 11:51:03;;;;;;;;;19.00;17.00;;;;;25.72;100.00;101345.75;5035277;28;45499;-74
2022/05/20 11:53:37;;;;;;;;;14.00;14.00;;;;;25.79;100.00;101336.47;5032958;28;45179;-74
2022/05/20 11:56:09;;;;;;;;;14.67;14.67;;;;;25.88;100.00;101314.38;5035039;28;47322;-74
2022/05/20 11:58:43;;;;;;;;;18.00;16.00;;;;;25.88;100.00;101295.44;5012109;28;45508;-74
2022/05/20 12:01:09;;;;;;;;;15.67;15.67;;;;;25.92;100.00;101275.44;5032225;28;45750;-74
2022/05/20 12:06:22;;;;;;;;;14.33;13.67;;;;;26.19;100.00;101292.22;5052855;28;45566;-73